Time;durP1;ratioP1;P1;durP2;ratioP2;P2;SDS_P1;SDS_P2;PMS_P1;PMS_P2;Temp;Humidity;BMP_temperature;BMP_pressure;BME280_temperature;BME280_humidity;BME280_pressure;Samples;Min_cycle;Max_cycle;Signal;HPM_P1;HPM_P2
2023/06/06 00:00:11;;;;;;;;;;;11.00;99.90;;;;;;5019213;28;20000;-86
2023/06/06 00:02:43;;;;;;;;;;;11.00;99.90;;;;;;5034800;28;19929;-84
2023/06/06 00:05:11;;;;;;;;;;;11.00;99.90;;;;;;5016046;28;19932;-86
2023/06/06 00:07:37;;;;;;;;;;;11.00;99.90;;;;;;5030522;28;19976;-88
2023/06/06 00:10:03;;;;;;;;;;;11.00;99.90;;;;;;5002828;28;19932;-87
2023/06/06 00:12:32;;;;;;;;;;;10.90;99.90;;;;;;5020202;28;19925;-87
2023/06/06 00:14:59;;;;;;;;;;;11.00;99.90;;;;;;5036995;28;19929;-86
2023/06/06 00:17:25;;;;;;;;;;;11.20;99.90;;;;;;5019328;28;20385;-87
2023/06/06 00:19:52;;;;;;;;;;;11.10;99.90;;;;;;5029145;28;19925;-86
2023/06/06 00:22:22;;;;;;;;;;;11.10;99.90;;;;;;5030772;28;19970;-86
2023/06/06 00:24:48;;;;;;;;;;;11.00;99.90;;;;;;5036579;28;20015;-87
2023/06/06 00:27:14;;;;;;;;;;;11.00;99.90;;;;;;5020385;28;19931;-86
2023/06/06 00:29:39;;;;;;;;;;;11.00;99.90;;;;;;5036864;28;19926;-86
2023/06/06 00:32:05;;;;;;;;;;;11.00;99.90;;;;;;5035252;28;19986;-87
2023/06/06 00:34:31;;;;;;;;;;;11.00;99.90;;;;;;5011998;28;19928;-86
2023/06/06 00:37:02;;;;;;;;;;;11.10;99.90;;;;;;5009228;28;19929;-86
2023/06/06 00:39:28;;;;;;;;;;;11.10;99.90;;;;;;5021879;28;19925;-86
2023/06/06 00:41:54;;;;;;;;;;;11.10;99.90;;;;;;5020025;28;19925;-86
2023/06/06 00:44:20;;;;;;;;;;;11.00;99.90;;;;;;5012521;28;19925;-86
2023/06/06 00:46:46;;;;;;;;;;;11.00;99.90;;;;;;5037702;28;20011;-87
2023/06/06 00:49:13;;;;;;;;;;;10.90;99.90;;;;;;5041975;28;19994;-87
2023/06/06 00:51:39;;;;;;;;;;;10.90;99.90;;;;;;5032226;28;19951;-87
2023/06/06 00:54:07;;;;;;;;;;;10.90;99.90;;;;;;5052014;28;19925;-87
2023/06/06 00:56:36;;;;;;;;;;;10.90;99.90;;;;;;5049801;28;19932;-86
2023/06/06 00:59:02;;;;;;;;;;;10.90;99.90;;;;;;5007692;28;19932;-87
2023/06/06 01:01:33;;;;;;;;;;;10.80;99.90;;;;;;5044488;28;19943;-87
2023/06/06 01:04:07;;;;;;;;;;;10.90;99.90;;;;;;5019425;28;19936;-87
2023/06/06 01:06:39;;;;;;;;;;;10.80;99.90;;;;;;5040933;28;19931;-87
2023/06/06 01:09:06;;;;;;;;;;;10.80;99.90;;;;;;5024166;28;19934;-87
2023/06/06 01:11:39;;;;;;;;;;;10.90;99.90;;;;;;5037442;28;19928;-87
2023/06/06 01:14:13;;;;;;;;;;;10.90;99.90;;;;;;5036384;28;20370;-87
2023/06/06 01:16:40;;;;;;;;;;;10.80;99.90;;;;;;5036520;28;20337;-86
2023/06/06 01:19:09;;;;;;;;;;;10.80;99.90;;;;;;5043673;28;19931;-87
2023/06/06 01:21:40;;;;;;;;;;;10.80;99.90;;;;;;5042002;28;19925;-87
2023/06/06 01:24:06;;;;;;;;;;;10.70;99.90;;;;;;5019760;28;19932;-87
2023/06/06 01:26:32;;;;;;;;;;;10.70;99.90;;;;;;5015491;28;19936;-87
2023/06/06 01:28:57;;;;;;;;;;;10.70;99.90;;;;;;5041686;28;19925;-86
2023/06/06 01:31:24;;;;;;;;;;;10.70;99.90;;;;;;5027609;28;19925;-87
2023/06/06 01:33:54;;;;;;;;;;;10.70;99.90;;;;;;5005696;28;19929;-87
2023/06/06 01:36:28;;;;;;;;;;;10.70;99.90;;;;;;5019008;28;20012;-86
2023/06/06 01:38:55;;;;;;;;;;;10.70;99.90;;;;;;5018840;28;20008;-86
2023/06/06 01:41:22;;;;;;;;;;;10.70;99.90;;;;;;5035450;28;19985;-86
2023/06/06 01:43:50;;;;;;;;;;;10.60;99.90;;;;;;5034541;28;20412;-87
2023/06/06 01:46:16;;;;;;;;;;;10.60;99.90;;;;;;5035241;28;20008;-86
2023/06/06 01:48:43;;;;;;;;;;;10.60;99.90;;;;;;5034025;28;20039;-86
2023/06/06 01:51:11;;;;;;;;;;;10.70;99.90;;;;;;5035039;28;19928;-87
2023/06/06 01:53:37;;;;;;;;;;;10.60;99.90;;;;;;5029537;28;19933;-86
2023/06/06 01:56:03;;;;;;;;;;;10.50;99.90;;;;;;5031077;28;19932;-86
2023/06/06 01:58:28;;;;;;;;;;;10.40;99.90;;;;;;5023826;28;20217;-87
2023/06/06 02:00:54;;;;;;;;;;;10.30;99.90;;;;;;5034972;28;19964;-86
2023/06/06 02:03:20;;;;;;;;;;;10.10;99.90;;;;;;5036954;28;19940;-88
2023/06/06 02:05:46;;;;;;;;;;;10.00;99.90;;;;;;5024225;28;19931;-87
2023/06/06 02:08:14;;;;;;;;;;;11.60;99.90;;;;;;5025151;28;20442;-86
2023/06/06 02:10:40;;;;;;;;;;;9.60;99.90;;;;;;5025095;28;20016;-86
2023/06/06 02:13:06;;;;;;;;;;;9.30;99.90;;;;;;5041425;28;20019;-87
2023/06/06 02:15:32;;;;;;;;;;;9.20;99.90;;;;;;5041296;28;19925;-86
2023/06/06 02:17:57;;;;;;;;;;;9.10;99.90;;;;;;5038908;28;19925;-88
2023/06/06 02:20:23;;;;;;;;;;;8.90;99.90;;;;;;5012049;28;19932;-86
2023/06/06 02:22:48;;;;;;;;;;;8.70;99.90;;;;;;5041283;28;19925;-86
2023/06/06 02:25:14;;;;;;;;;;;8.70;99.90;;;;;;5024671;28;20485;-86
2023/06/06 02:27:43;;;;;;;;;;;8.50;99.90;;;;;;5041869;28;20327;-86
2023/06/06 02:30:09;;;;;;;;;;;8.40;99.90;;;;;;5040793;28;19925;-86
2023/06/06 02:32:35;;;;;;;;;;;8.30;99.90;;;;;;5041442;28;19931;-86
2023/06/06 02:35:01;;;;;;;;;;;8.20;99.90;;;;;;5007486;28;19935;-86
2023/06/06 02:37:26;;;;;;;;;;;8.10;99.90;;;;;;5041505;28;20310;-86
2023/06/06 02:39:53;;;;;;;;;;;8.10;99.90;;;;;;5036088;28;20007;-86
2023/06/06 02:42:18;;;;;;;;;;;8.10;99.90;;;;;;5021252;28;19948;-86
2023/06/06 02:44:44;;;;;;;;;;;8.00;99.90;;;;;;5023251;28;19925;-86
2023/06/06 02:47:10;;;;;;;;;;;8.00;99.90;;;;;;5021817;28;19925;-86
2023/06/06 02:49:35;;;;;;;;;;;8.00;99.90;;;;;;5036986;28;19939;-86
2023/06/06 02:52:01;;;;;;;;;;;8.10;99.90;;;;;;5017462;28;19931;-86
2023/06/06 02:54:27;;;;;;;;;;;8.10;99.90;;;;;;5036627;28;19929;-86
2023/06/06 02:56:52;;;;;;;;;;;8.10;99.90;;;;;;5019443;28;19925;-86
2023/06/06 02:59:18;;;;;;;;;;;8.00;99.90;;;;;;5024421;28;19970;-86
2023/06/06 03:01:47;;;;;;;;;;;8.00;99.90;;;;;;5036940;28;20282;-86
2023/06/06 03:04:13;;;;;;;;;;;8.00;99.90;;;;;;5037454;28;19925;-87
2023/06/06 03:06:41;;;;;;;;;;;8.00;99.90;;;;;;5021907;28;20192;-86
2023/06/06 03:09:07;;;;;;;;;;;8.00;99.90;;;;;;5040439;28;19935;-86
2023/06/06 03:11:33;;;;;;;;;;;8.10;99.90;;;;;;5031411;28;19972;-86
2023/06/06 03:13:59;;;;;;;;;;;8.20;99.90;;;;;;5023829;28;19935;-86
2023/06/06 03:16:28;;;;;;;;;;;8.40;99.90;;;;;;5034929;28;20011;-86
2023/06/06 03:18:56;;;;;;;;;;;8.60;99.90;;;;;;5054222;28;19932;-85
2023/06/06 03:21:22;;;;;;;;;;;8.70;99.90;;;;;;5016532;28;20005;-86
2023/06/06 03:23:48;;;;;;;;;;;8.90;99.90;;;;;;5033488;28;20389;-86
2023/06/06 03:26:14;;;;;;;;;;;9.00;99.90;;;;;;5036794;28;19963;-86
2023/06/06 03:28:39;;;;;;;;;;;9.10;99.90;;;;;;5035655;28;20398;-86
2023/06/06 03:31:06;;;;;;;;;;;9.20;99.90;;;;;;5020331;28;20024;-86
2023/06/06 03:33:32;;;;;;;;;;;9.30;99.90;;;;;;5034946;28;20291;-87
2023/06/06 03:35:58;;;;;;;;;;;9.40;99.90;;;;;;5021002;28;19924;-86
2023/06/06 03:38:24;;;;;;;;;;;9.60;99.90;;;;;;5048822;28;19929;-86
2023/06/06 03:40:49;;;;;;;;;;;9.70;99.90;;;;;;5037306;28;19931;-87
2023/06/06 03:43:15;;;;;;;;;;;9.80;99.90;;;;;;5039533;28;19924;-86
2023/06/06 03:45:41;;;;;;;;;;;9.90;99.90;;;;;;5036401;28;19924;-86
2023/06/06 03:48:09;;;;;;;;;;;10.10;99.90;;;;;;5035284;28;19944;-86
2023/06/06 03:50:35;;;;;;;;;;;10.20;99.90;;;;;;5036350;28;19978;-85
2023/06/06 03:53:01;;;;;;;;;;;10.30;99.90;;;;;;5023959;28;20350;-86
2023/06/06 03:55:26;;;;;;;;;;;10.50;99.90;;;;;;5019870;28;20198;-86
2023/06/06 03:57:53;;;;;;;;;;;10.70;99.90;;;;;;5020554;28;19982;-86
2023/06/06 04:00:19;;;;;;;;;;;10.80;99.90;;;;;;5033647;28;20024;-87
2023/06/06 04:02:48;;;;;;;;;;;10.80;99.90;;;;;;5002455;28;19972;-86
2023/06/06 04:05:14;;;;;;;;;;;10.80;99.90;;;;;;5017862;28;19978;-87
2023/06/06 04:07:42;;;;;;;;;;;10.80;99.90;;;;;;5032511;28;19924;-87
2023/06/06 04:10:08;;;;;;;;;;;10.80;99.90;;;;;;5035994;28;20343;-87
2023/06/06 04:12:34;;;;;;;;;;;10.90;99.90;;;;;;5035866;28;19951;-86
2023/06/06 04:15:00;;;;;;;;;;;10.90;99.90;;;;;;5036396;28;19999;-87
2023/06/06 04:17:27;;;;;;;;;;;11.00;99.90;;;;;;5027344;28;20433;-87
2023/06/06 04:19:53;;;;;;;;;;;11.00;99.90;;;;;;5023604;28;19924;-86
2023/06/06 04:22:19;;;;;;;;;;;10.30;99.90;;;;;;5019627;28;20007;-86
2023/06/06 04:24:46;;;;;;;;;;;11.00;99.90;;;;;;5036329;28;19975;-86
2023/06/06 04:27:12;;;;;;;;;;;11.10;99.90;;;;;;5018029;28;19931;-87
2023/06/06 04:29:40;;;;;;;;;;;11.20;99.90;;;;;;5023164;28;19933;-86
2023/06/06 04:32:08;;;;;;;;;;;11.20;99.90;;;;;;5027794;28;20335;-86
2023/06/06 04:34:39;;;;;;;;;;;11.40;99.90;;;;;;5035119;28;19925;-87
2023/06/06 04:37:05;;;;;;;;;;;11.40;99.90;;;;;;5039840;28;20361;-87
2023/06/06 04:39:33;;;;;;;;;;;11.40;99.90;;;;;;5022198;28;19971;-86
2023/06/06 04:42:00;;;;;;;;;;;11.40;99.90;;;;;;5031665;28;19960;-87
2023/06/06 04:44:27;;;;;;;;;;;11.40;99.90;;;;;;5046837;28;20401;-87
2023/06/06 04:47:00;;;;;;;;;;;11.40;99.90;;;;;;5036988;28;19925;-88
2023/06/06 04:49:26;;;;;;;;;;;11.50;99.90;;;;;;5027620;28;19925;-87
2023/06/06 04:51:53;;;;;;;;;;;11.50;99.90;;;;;;5043463;28;19929;-87
2023/06/06 04:54:18;;;;;;;;;;;11.70;99.90;;;;;;5009785;28;19924;-86
2023/06/06 04:56:45;;;;;;;;;;;11.60;99.90;;;;;;5043188;28;19924;-87
2023/06/06 04:59:10;;;;;;;;;;;11.60;99.90;;;;;;5021662;28;19929;-87
2023/06/06 05:01:36;;;;;;;;;;;11.60;99.90;;;;;;5036362;28;19952;-87
2023/06/06 05:04:03;;;;;;;;;;;11.70;99.90;;;;;;5002539;28;20024;-86
2023/06/06 05:06:33;;;;;;;;;;;11.70;99.90;;;;;;5019663;28;19975;-87
2023/06/06 05:09:07;;;;;;;;;;;11.80;99.90;;;;;;5035198;28;20019;-86
2023/06/06 05:11:36;;;;;;;;;;;13.20;99.90;;;;;;5024234;28;19994;-87
2023/06/06 05:14:02;;;;;;;;;;;11.80;99.90;;;;;;5030077;28;19971;-87
2023/06/06 05:16:27;;;;;;;;;;;11.80;99.90;;;;;;5028244;28;19978;-87
2023/06/06 05:18:53;;;;;;;;;;;11.80;99.90;;;;;;5038383;28;19929;-86
2023/06/06 05:21:19;;;;;;;;;;;11.90;99.90;;;;;;5028838;28;19948;-85
2023/06/06 05:23:45;;;;;;;;;;;11.90;99.90;;;;;;5034975;28;20079;-87
2023/06/06 05:26:10;;;;;;;;;;;12.00;99.90;;;;;;5035593;28;20027;-87
2023/06/06 05:28:37;;;;;;;;;;;12.00;99.90;;;;;;5035194;28;19941;-87
2023/06/06 05:31:02;;;;;;;;;;;12.00;99.90;;;;;;5022286;28;19925;-87
2023/06/06 05:33:30;;;;;;;;;;;12.10;99.90;;;;;;5016952;28;19925;-86
2023/06/06 05:35:56;;;;;;;;;;;12.20;99.90;;;;;;5035328;28;20441;-86
2023/06/06 05:38:22;;;;;;;;;;;12.10;99.90;;;;;;5022748;28;20043;-88
2023/06/06 05:40:47;;;;;;;;;;;12.20;99.90;;;;;;5019225;28;19925;-86
2023/06/06 05:43:15;;;;;;;;;;;12.20;99.90;;;;;;5018694;28;20382;-86
2023/06/06 05:45:41;;;;;;;;;;;12.20;99.90;;;;;;5002985;28;19925;-86
2023/06/06 05:48:06;;;;;;;;;;;12.20;99.90;;;;;;5028330;28;19928;-85
2023/06/06 05:50:32;;;;;;;;;;;12.40;99.90;;;;;;5031495;28;19925;-86
2023/06/06 05:52:58;;;;;;;;;;;12.30;99.90;;;;;;5028411;28;20016;-87
2023/06/06 05:55:28;;;;;;;;;;;12.30;99.90;;;;;;5012510;28;20028;-86
2023/06/06 05:57:55;;;;;;;;;;;12.40;99.90;;;;;;5028982;28;19975;-87
2023/06/06 06:00:22;;;;;;;;;;;12.40;99.90;;;;;;5015315;28;19931;-87
2023/06/06 06:02:51;;;;;;;;;;;12.40;99.90;;;;;;5023091;28;19932;-87
2023/06/06 06:05:20;;;;;;;;;;;12.40;99.90;;;;;;5016267;28;19933;-88
2023/06/06 06:07:49;;;;;;;;;;;12.50;99.90;;;;;;5013624;28;19925;-88
2023/06/06 06:10:18;;;;;;;;;;;12.50;99.90;;;;;;5031059;28;20274;-85
2023/06/06 06:12:44;;;;;;;;;;;14.50;99.90;;;;;;5032481;28;19931;-87
2023/06/06 06:15:10;;;;;;;;;;;12.60;99.90;;;;;;5016763;28;19931;-87
2023/06/06 06:17:36;;;;;;;;;;;13.20;99.90;;;;;;5050115;28;19928;-86
2023/06/06 06:20:08;;;;;;;;;;;12.60;99.90;;;;;;5016534;28;19936;-86
2023/06/06 06:22:35;;;;;;;;;;;12.60;99.90;;;;;;5029759;28;20461;-86
2023/06/06 06:25:00;;;;;;;;;;;12.80;99.90;;;;;;5028762;28;19932;-86
2023/06/06 06:27:26;;;;;;;;;;;12.70;99.90;;;;;;5033843;28;19932;-88
2023/06/06 06:29:52;;;;;;;;;;;12.80;99.90;;;;;;5033232;28;19925;-86
2023/06/06 06:32:17;;;;;;;;;;;12.80;99.90;;;;;;5017792;28;19924;-87
2023/06/06 06:34:43;;;;;;;;;;;12.90;99.90;;;;;;5014117;28;20430;-86
2023/06/06 06:37:09;;;;;;;;;;;12.90;99.90;;;;;;5016028;28;19925;-86
2023/06/06 06:39:34;;;;;;;;;;;13.10;99.90;;;;;;5036206;28;19978;-84
2023/06/06 06:42:00;;;;;;;;;;;13.00;99.90;;;;;;5017429;28;20011;-85
2023/06/06 06:44:26;;;;;;;;;;;13.10;99.90;;;;;;5034942;28;19946;-86
2023/06/06 06:46:51;;;;;;;;;;;13.10;99.90;;;;;;5048383;28;20364;-86
2023/06/06 06:49:17;;;;;;;;;;;13.00;99.90;;;;;;5033610;28;19925;-84
2023/06/06 06:51:43;;;;;;;;;;;13.10;99.90;;;;;;5020978;28;20419;-86
2023/06/06 06:54:12;;;;;;;;;;;13.20;99.90;;;;;;5031863;28;19924;-86
2023/06/06 06:56:41;;;;;;;;;;;13.20;99.90;;;;;;5035203;28;19929;-87
2023/06/06 06:59:07;;;;;;;;;;;13.20;99.90;;;;;;5037730;28;19955;-88
2023/06/06 07:01:39;;;;;;;;;;;13.10;99.90;;;;;;5051628;28;19982;-85
2023/06/06 07:04:05;;;;;;;;;;;13.20;99.90;;;;;;5009516;28;19929;-86
2023/06/06 07:06:33;;;;;;;;;;;13.30;99.90;;;;;;5030097;28;19929;-87
2023/06/06 07:09:00;;;;;;;;;;;13.30;99.90;;;;;;5036836;28;19924;-87
2023/06/06 07:11:31;;;;;;;;;;;13.90;99.90;;;;;;5026974;28;19925;-87
2023/06/06 07:13:57;;;;;;;;;;;13.30;99.90;;;;;;5003226;28;19929;-87
2023/06/06 07:16:34;;;;;;;;;;;13.30;99.90;;;;;;5037073;28;20015;-87
2023/06/06 07:18:59;;;;;;;;;;;13.40;99.90;;;;;;5030885;28;19964;-86
2023/06/06 07:21:27;;;;;;;;;;;13.50;99.90;;;;;;5036083;28;19974;-86
2023/06/06 07:23:53;;;;;;;;;;;13.60;99.90;;;;;;5032047;28;19929;-86
2023/06/06 07:26:22;;;;;;;;;;;13.60;99.90;;;;;;5053391;28;20321;-86
2023/06/06 07:28:54;;;;;;;;;;;13.70;99.90;;;;;;5027354;28;19975;-87
2023/06/06 07:31:19;;;;;;;;;;;13.80;99.90;;;;;;5035961;28;19924;-86
2023/06/06 07:33:45;;;;;;;;;;;13.80;99.90;;;;;;5032236;28;19950;-87
2023/06/06 07:36:11;;;;;;;;;;;13.80;99.90;;;;;;5036418;28;19925;-86
2023/06/06 07:38:36;;;;;;;;;;;13.80;99.90;;;;;;5035756;28;19940;-87
2023/06/06 07:41:02;;;;;;;;;;;13.80;99.90;;;;;;5035925;28;19925;-88
2023/06/06 07:43:28;;;;;;;;;;;13.90;99.90;;;;;;5034863;28;20286;-87
2023/06/06 07:45:53;;;;;;;;;;;13.90;99.90;;;;;;4994651;28;19926;-87
2023/06/06 07:48:21;;;;;;;;;;;13.90;99.90;;;;;;5016073;28;19971;-88
2023/06/06 07:50:47;;;;;;;;;;;14.00;99.90;;;;;;5015212;28;20015;-87
2023/06/06 07:53:13;;;;;;;;;;;14.20;99.90;;;;;;5016996;28;20004;-87
2023/06/06 07:55:38;;;;;;;;;;;14.20;99.90;;;;;;5015924;28;19941;-87
2023/06/06 07:58:10;;;;;;;;;;;14.20;99.90;;;;;;5026433;28;20020;-86
2023/06/06 08:00:37;;;;;;;;;;;14.20;99.90;;;;;;5031033;28;20037;-88
2023/06/06 08:03:02;;;;;;;;;;;14.30;99.90;;;;;;5002843;28;19929;-87
2023/06/06 08:05:28;;;;;;;;;;;14.30;99.90;;;;;;5019561;28;19949;-87
2023/06/06 08:07:54;;;;;;;;;;;14.30;99.90;;;;;;5018452;28;20320;-86
2023/06/06 08:10:20;;;;;;;;;;;14.40;99.90;;;;;;5018018;28;19925;-87
2023/06/06 08:12:46;;;;;;;;;;;14.40;99.90;;;;;;5024062;28;19928;-86
2023/06/06 08:15:13;;;;;;;;;;;14.50;99.90;;;;;;5033977;28;19925;-86
2023/06/06 08:17:38;;;;;;;;;;;14.50;99.90;;;;;;5017177;28;19929;-86
2023/06/06 08:20:09;;;;;;;;;;;14.70;99.90;;;;;;5029574;28;19934;-84
2023/06/06 08:22:37;;;;;;;;;;;14.70;99.90;;;;;;5031693;28;20024;-85
2023/06/06 08:25:07;;;;;;;;;;;14.70;99.90;;;;;;5045947;28;19925;-84
2023/06/06 08:27:34;;;;;;;;;;;14.80;99.90;;;;;;5032497;28;19933;-86
2023/06/06 08:30:02;;;;;;;;;;;14.80;99.90;;;;;;5032867;28;19975;-87
2023/06/06 08:32:30;;;;;;;;;;;14.90;99.90;;;;;;5035052;28;19929;-88
2023/06/06 08:34:56;;;;;;;;;;;14.90;99.90;;;;;;5065087;28;19925;-88
2023/06/06 08:37:29;;;;;;;;;;;14.90;99.90;;;;;;5034037;28;19935;-85
2023/06/06 08:39:57;;;;;;;;;;;15.00;99.90;;;;;;5035769;28;19935;-88
2023/06/06 08:42:23;;;;;;;;;;;15.10;99.90;;;;;;5043086;28;19935;-89
2023/06/06 08:44:52;;;;;;;;;;;13.00;99.90;;;;;;5041741;28;20008;-86
2023/06/06 08:47:20;;;;;;;;;;;15.50;99.90;;;;;;5038519;28;20557;-86
2023/06/06 08:49:45;;;;;;;;;;;15.30;99.90;;;;;;5010156;28;20263;-86
2023/06/06 08:52:11;;;;;;;;;;;13.20;99.90;;;;;;5036770;28;19931;-87
2023/06/06 08:54:37;;;;;;;;;;;15.40;99.90;;;;;;5030374;28;20038;-87
2023/06/06 08:57:07;;;;;;;;;;;15.40;99.90;;;;;;5034961;28;20400;-84
2023/06/06 08:59:42;;;;;;;;;;;15.50;99.90;;;;;;5018461;28;20026;-87
2023/06/06 09:02:15;;;;;;;;;;;15.60;99.90;;;;;;5028998;28;20393;-86
2023/06/06 09:04:50;;;;;;;;;;;15.50;99.90;;;;;;5033272;28;19928;-88
2023/06/06 09:07:18;;;;;;;;;;;15.50;99.90;;;;;;5048554;28;20345;-86
2023/06/06 09:09:47;;;;;;;;;;;18.00;99.90;;;;;;5013143;28;19925;-87
2023/06/06 09:12:13;;;;;;;;;;;17.70;99.90;;;;;;5030278;28;19925;-86
2023/06/06 09:14:42;;;;;;;;;;;14.40;99.90;;;;;;5031728;28;19936;-86
2023/06/06 09:17:14;;;;;;;;;;;16.20;99.90;;;;;;5018087;28;19951;-85
2023/06/06 09:19:46;;;;;;;;;;;15.90;99.90;;;;;;5048431;28;19925;-86
2023/06/06 09:22:16;;;;;;;;;;;15.60;99.90;;;;;;5032824;28;19931;-87
2023/06/06 09:24:43;;;;;;;;;;;14.40;99.90;;;;;;5029863;28;19951;-86
2023/06/06 09:27:25;;;;;;;;;;;16.10;99.90;;;;;;5034710;28;19925;-88
2023/06/06 09:29:51;;;;;;;;;;;16.10;99.90;;;;;;5006855;28;20016;-87
2023/06/06 09:32:25;;;;;;;;;;;16.20;99.90;;;;;;5031738;28;20386;-86
2023/06/06 09:34:54;;;;;;;;;;;14.30;99.90;;;;;;5032338;28;19971;-88
2023/06/06 09:37:23;;;;;;;;;;;16.40;99.90;;;;;;5030699;28;20239;-85
2023/06/06 09:40:09;;;;;;;;;;;16.50;99.90;;;;;;5006549;28;19925;-85
2023/06/06 09:42:35;;;;;;;;;;;16.50;99.90;;;;;;5016008;28;20370;-85
2023/06/06 09:45:04;;;;;;;;;;;16.60;99.90;;;;;;5018453;28;19949;-85
2023/06/06 09:47:30;;;;;;;;;;;16.60;99.90;;;;;;5022497;28;20267;-85
2023/06/06 09:49:55;;;;;;;;;;;16.60;99.90;;;;;;5032766;28;19940;-87
2023/06/06 09:52:21;;;;;;;;;;;16.60;99.90;;;;;;5023757;28;19929;-86
2023/06/06 09:54:48;;;;;;;;;;;16.70;99.90;;;;;;5032363;28;19933;-85
2023/06/06 09:57:14;;;;;;;;;;;16.80;99.90;;;;;;5016171;28;20375;-85
2023/06/06 09:59:40;;;;;;;;;;;16.80;99.90;;;;;;5007336;28;19940;-87
2023/06/06 10:02:06;;;;;;;;;;;18.00;99.90;;;;;;5029929;28;19925;-86
2023/06/06 10:04:33;;;;;;;;;;;16.90;99.90;;;;;;5031647;28;19933;-85
2023/06/06 10:07:05;;;;;;;;;;;17.00;99.90;;;;;;5032289;28;20268;-86
2023/06/06 10:09:32;;;;;;;;;;;17.00;99.90;;;;;;5027604;28;19975;-86
2023/06/06 10:11:59;;;;;;;;;;;17.20;99.90;;;;;;5030781;28;19932;-85
2023/06/06 10:14:25;;;;;;;;;;;17.00;99.90;;;;;;5016739;28;19990;-88
2023/06/06 10:16:51;;;;;;;;;;;17.10;99.90;;;;;;5032453;28;19932;-88
2023/06/06 10:19:18;;;;;;;;;;;17.10;99.90;;;;;;5024196;28;20463;-88
2023/06/06 10:21:44;;;;;;;;;;;17.20;99.90;;;;;;5044562;28;20401;-87
2023/06/06 10:24:36;;;;;;;;;;;17.30;99.90;;;;;;5017131;28;19964;-90
2023/06/06 10:27:17;;;;;;;;;;;17.30;99.90;;;;;;4995596;28;19971;-90
2023/06/06 10:29:49;;;;;;;;;;;17.50;99.90;;;;;;5027173;28;19929;-86
2023/06/06 10:32:17;;;;;;;;;;;17.40;99.90;;;;;;5051856;28;20004;-86
2023/06/06 10:34:45;;;;;;;;;;;17.50;99.90;;;;;;5012729;28;19950;-85
2023/06/06 10:37:17;;;;;;;;;;;17.30;99.90;;;;;;5037384;28;20393;-85
2023/06/06 10:39:47;;;;;;;;;;;17.40;99.90;;;;;;5016454;28;20031;-87
2023/06/06 10:42:18;;;;;;;;;;;17.70;99.90;;;;;;5014923;28;19929;-84
2023/06/06 10:44:52;;;;;;;;;;;17.50;99.90;;;;;;5015267;28;20015;-88
2023/06/06 10:47:27;;;;;;;;;;;17.70;99.90;;;;;;5025495;28;20012;-88
2023/06/06 10:50:26;;;;;;;;;;;17.60;99.90;;;;;;5043638;28;19925;-87
2023/06/06 10:52:54;;;;;;;;;;;17.80;99.90;;;;;;5026286;28;19925;-86
2023/06/06 10:55:20;;;;;;;;;;;18.10;99.90;;;;;;5022946;28;19925;-87
2023/06/06 10:57:52;;;;;;;;;;;18.00;99.90;;;;;;5023237;28;19925;-88
2023/06/06 11:00:21;;;;;;;;;;;18.00;99.90;;;;;;5020165;28;20396;-87
2023/06/06 11:02:49;;;;;;;;;;;18.10;99.90;;;;;;5031069;28;19931;-86
2023/06/06 11:05:15;;;;;;;;;;;16.90;99.90;;;;;;5014651;28;19932;-87
2023/06/06 11:07:42;;;;;;;;;;;18.10;99.90;;;;;;5024451;28;19925;-86
2023/06/06 11:10:08;;;;;;;;;;;18.10;99.90;;;;;;5006221;28;19928;-88
2023/06/06 11:12:34;;;;;;;;;;;18.00;99.90;;;;;;5004522;28;19979;-86
2023/06/06 11:15:06;;;;;;;;;;;15.70;99.90;;;;;;5018217;28;19985;-86
2023/06/06 11:17:55;;;;;;;;;;;18.20;99.90;;;;;;4988230;28;19925;-87
2023/06/06 11:20:21;;;;;;;;;;;18.20;99.90;;;;;;5009377;28;19932;-88
2023/06/06 11:23:03;;;;;;;;;;;18.20;99.90;;;;;;4999157;28;19933;-87
2023/06/06 11:25:37;;;;;;;;;;;18.60;99.90;;;;;;5012881;28;20016;-88
2023/06/06 11:28:08;;;;;;;;;;;19.00;99.90;;;;;;5006519;28;19929;-88
2023/06/06 11:30:39;;;;;;;;;;;18.50;99.90;;;;;;5003953;28;19969;-88
2023/06/06 11:33:11;;;;;;;;;;;18.40;99.90;;;;;;4993892;28;20003;-88
2023/06/06 11:35:38;;;;;;;;;;;18.70;99.90;;;;;;5007434;28;20113;-88
2023/06/06 11:38:06;;;;;;;;;;;18.70;99.90;;;;;;4999799;28;20531;-87
2023/06/06 11:40:32;;;;;;;;;;;18.50;99.90;;;;;;5014886;28;19972;-86
2023/06/06 11:42:58;;;;;;;;;;;18.50;99.90;;;;;;4999923;28;20434;-85
2023/06/06 11:45:26;;;;;;;;;;;18.80;99.90;;;;;;5016037;28;19935;-90
2023/06/06 11:47:52;;;;;;;;;;;18.70;99.90;;;;;;4999741;28;19925;-87
2023/06/06 11:50:27;;;;;;;;;;;17.90;99.90;;;;;;5012809;28;19932;-88
2023/06/06 11:52:55;;;;;;;;;;;18.70;99.90;;;;;;5016306;28;20039;-89
2023/06/06 11:55:34;;;;;;;;;;;18.50;99.90;;;;;;5004231;28;19929;-88
2023/06/06 11:58:10;;;;;;;;;;;18.60;99.90;;;;;;5015542;28;19952;-89
2023/06/06 12:03:24;;;;;;;;;;;18.90;99.90;;;;;;5008631;28;19944;-88
2023/06/06 12:06:00;;;;;;;;;;;19.20;99.90;;;;;;4998461;28;20153;-88
2023/06/06 12:08:26;;;;;;;;;;;19.20;99.90;;;;;;5015688;28;20359;-86
2023/06/06 12:10:52;;;;;;;;;;;17.20;99.90;;;;;;5030286;28;19933;-89
2023/06/06 12:13:34;;;;;;;;;;;17.70;99.90;;;;;;5039496;28;19937;-87
2023/06/06 12:16:00;;;;;;;;;;;18.80;99.90;;;;;;5028093;28;20024;-88
2023/06/06 12:18:28;;;;;;;;;;;17.30;99.90;;;;;;5061921;28;19924;-88
2023/06/06 12:21:05;;;;;;;;;;;19.20;99.90;;;;;;5031818;28;19931;-90
2023/06/06 12:23:31;;;;;;;;;;;19.00;99.90;;;;;;5047117;28;19925;-90
2023/06/06 12:26:02;;;;;;;;;;;19.50;99.90;;;;;;5041068;28;19950;-89
2023/06/06 12:28:34;;;;;;;;;;;19.20;99.90;;;;;;5008067;28;20015;-88
2023/06/06 12:31:18;;;;;;;;;;;19.30;99.90;;;;;;5036038;28;20282;-87
2023/06/06 12:33:46;;;;;;;;;;;19.50;99.90;;;;;;5024520;28;20399;-89
2023/06/06 12:36:27;;;;;;;;;;;19.40;99.90;;;;;;5017658;28;19924;-89
2023/06/06 12:38:56;;;;;;;;;;;19.40;99.90;;;;;;5029143;28;19925;-89
2023/06/06 12:41:29;;;;;;;;;;;19.20;99.90;;;;;;5015612;28;20010;-89
2023/06/06 12:43:55;;;;;;;;;;;19.10;99.90;;;;;;5015790;28;20067;-91
2023/06/06 12:46:20;;;;;;;;;;;19.30;99.90;;;;;;5018786;28;20059;-90
2023/06/06 12:48:46;;;;;;;;;;;19.10;99.90;;;;;;5001657;28;19929;-88
2023/06/06 12:51:12;;;;;;;;;;;19.20;99.90;;;;;;5027637;28;19925;-88
2023/06/06 12:53:37;;;;;;;;;;;19.50;99.90;;;;;;5018483;28;20505;-88
2023/06/06 12:56:03;;;;;;;;;;;19.20;99.90;;;;;;5031673;28;19929;-89
2023/06/06 12:58:29;;;;;;;;;;;17.80;99.90;;;;;;5008917;28;19929;-86
2023/06/06 13:01:03;;;;;;;;;;;19.40;99.90;;;;;;5011883;28;19929;-91
2023/06/06 13:03:32;;;;;;;;;;;19.50;99.90;;;;;;5017876;28;19925;-88
2023/06/06 13:06:00;;;;;;;;;;;19.60;99.90;;;;;;5018921;28;19932;-89
2023/06/06 13:08:28;;;;;;;;;;;19.30;99.90;;;;;;5027773;28;20000;-89
2023/06/06 13:10:56;;;;;;;;;;;19.40;99.90;;;;;;5016392;28;20015;-91
2023/06/06 13:13:25;;;;;;;;;;;19.40;99.90;;;;;;5022639;28;20346;-91
2023/06/06 13:15:54;;;;;;;;;;;18.40;99.90;;;;;;5017725;28;19931;-89
2023/06/06 13:18:22;;;;;;;;;;;19.40;99.90;;;;;;5017922;28;19979;-91
2023/06/06 13:20:53;;;;;;;;;;;19.40;99.90;;;;;;5017408;28;20003;-90
2023/06/06 13:23:21;;;;;;;;;;;19.70;99.90;;;;;;5016307;28;20056;-89
2023/06/06 13:25:49;;;;;;;;;;;19.20;99.90;;;;;;5031977;28;19952;-90
2023/06/06 13:28:17;;;;;;;;;;;19.30;99.90;;;;;;5034514;28;19931;-90
2023/06/06 13:30:43;;;;;;;;;;;19.60;99.90;;;;;;5017466;28;19928;-89
2023/06/06 13:33:11;;;;;;;;;;;19.50;99.90;;;;;;5033860;28;19925;-88
2023/06/06 13:35:37;;;;;;;;;;;19.50;99.90;;;;;;5000982;28;19936;-87
2023/06/06 13:38:22;;;;;;;;;;;18.30;99.90;;;;;;5034258;28;20343;-88
2023/06/06 13:40:51;;;;;;;;;;;19.30;99.90;;;;;;5034025;28;19951;-87
2023/06/06 13:43:19;;;;;;;;;;;19.00;99.90;;;;;;5008628;28;20130;-91
2023/06/06 13:45:44;;;;;;;;;;;19.50;99.90;;;;;;5017274;28;19955;-88
2023/06/06 13:48:12;;;;;;;;;;;17.80;99.90;;;;;;5033502;28;19928;-87
2023/06/06 13:50:40;;;;;;;;;;;19.60;99.90;;;;;;5018837;28;20032;-89
2023/06/06 13:53:06;;;;;;;;;;;19.90;99.90;;;;;;5014142;28;19983;-89
2023/06/06 13:55:32;;;;;;;;;;;19.70;99.90;;;;;;5025146;28;19979;-87
2023/06/06 13:58:02;;;;;;;;;;;19.50;99.90;;;;;;5010120;28;19925;-88
2023/06/06 14:00:28;;;;;;;;;;;19.60;99.90;;;;;;5030485;28;19932;-87
2023/06/06 14:02:54;;;;;;;;;;;19.60;99.90;;;;;;5011092;28;19933;-88
2023/06/06 14:05:23;;;;;;;;;;;19.60;99.90;;;;;;5016193;28;19936;-88
2023/06/06 14:07:50;;;;;;;;;;;19.50;99.90;;;;;;5013996;28;20684;-87
2023/06/06 14:10:15;;;;;;;;;;;20.90;99.90;;;;;;5024371;28;20007;-87
2023/06/06 14:12:46;;;;;;;;;;;19.40;99.90;;;;;;5033315;28;19925;-88
2023/06/06 14:15:12;;;;;;;;;;;19.50;99.90;;;;;;5021497;28;19926;-88
2023/06/06 14:17:40;;;;;;;;;;;19.30;99.90;;;;;;5013998;28;19931;-87
2023/06/06 14:20:11;;;;;;;;;;;19.30;99.90;;;;;;5030172;28;20050;-84
2023/06/06 14:22:39;;;;;;;;;;;19.20;99.90;;;;;;5032646;28;19978;-86
2023/06/06 14:25:08;;;;;;;;;;;19.30;99.90;;;;;;5030595;28;19925;-85